createdAt,value
2022-09-21T00:00:48.831Z,9.48
2022-09-21T00:03:15.538Z,9.49
2022-09-21T00:05:41.818Z,9.50
2022-09-21T00:08:11.346Z,9.49
2022-09-21T00:10:37.959Z,9.51
2022-09-21T00:13:04.725Z,9.52
2022-09-21T00:15:31.691Z,9.47
2022-09-21T00:17:58.822Z,9.42
2022-09-21T00:20:25.873Z,9.40
2022-09-21T00:22:52.590Z,9.40
2022-09-21T00:25:20.721Z,9.42
2022-09-21T00:27:46.990Z,9.41
2022-09-21T00:30:13.401Z,9.35
2022-09-21T00:32:39.691Z,9.27
2022-09-21T00:35:06.243Z,9.24
2022-09-21T00:37:32.507Z,9.22
2022-09-21T00:39:58.844Z,9.23
2022-09-21T00:42:27.294Z,9.23
2022-09-21T00:44:53.741Z,9.19
2022-09-21T00:47:22.570Z,9.17
2022-09-21T00:49:51.218Z,9.14
2022-09-21T00:52:18.250Z,9.12
2022-09-21T00:54:46.608Z,9.11
2022-09-21T00:57:14.230Z,9.10
2022-09-21T00:59:43.238Z,9.08
2022-09-21T01:02:09.568Z,9.06
2022-09-21T01:04:35.883Z,9.03
2022-09-21T01:07:03.703Z,9.00
2022-09-21T01:09:30.010Z,9.04
2022-09-21T01:12:02.950Z,8.92
2022-09-21T01:14:48.879Z,8.89
2022-09-21T01:17:17.965Z,8.87
2022-09-21T01:20:05.132Z,8.88
2022-09-21T01:22:37.917Z,8.80
2022-09-21T01:25:07.739Z,8.74
2022-09-21T01:27:48.895Z,8.72
2022-09-21T01:30:17.866Z,8.69
2022-09-21T01:32:47.480Z,8.68
2022-09-21T01:35:16.292Z,8.61
2022-09-21T01:37:45.287Z,8.50
2022-09-21T01:40:13.149Z,8.49
2022-09-21T01:42:40.603Z,8.52
2022-09-21T01:45:07.793Z,8.54
2022-09-21T01:47:37.308Z,8.48
2022-09-21T01:50:06.007Z,8.45
2022-09-21T01:52:36.118Z,8.45
2022-09-21T01:55:06.290Z,8.42
2022-09-21T01:57:36.741Z,8.39
2022-09-21T02:00:03.626Z,8.32
2022-09-21T02:02:35.126Z,8.34
2022-09-21T02:05:03.683Z,8.33
2022-09-21T02:07:30.706Z,8.34
2022-09-21T02:09:57.502Z,8.36
2022-09-21T02:12:23.762Z,8.37
2022-09-21T02:14:52.751Z,8.35
2022-09-21T02:17:27.398Z,8.34
2022-09-21T02:19:57.397Z,8.32
2022-09-21T02:22:31.539Z,8.22
2022-09-21T02:25:04.169Z,8.13
2022-09-21T02:27:33.187Z,8.02
2022-09-21T02:30:04.746Z,8.01
2022-09-21T02:32:34.401Z,8.01
2022-09-21T02:35:02.375Z,8.01
2022-09-21T02:37:33.958Z,7.91
2022-09-21T02:40:03.153Z,7.89
2022-09-21T02:42:31.199Z,7.89
2022-09-21T02:45:01.146Z,7.87
2022-09-21T02:47:31.673Z,7.86
2022-09-21T02:50:01.318Z,7.78
2022-09-21T02:52:28.175Z,7.77
2022-09-21T02:54:56.526Z,7.79
2022-09-21T02:57:23.815Z,7.80
2022-09-21T02:59:50.429Z,7.83
2022-09-21T03:02:16.730Z,7.79
2022-09-21T03:04:44.456Z,7.82
2022-09-21T03:07:10.714Z,7.75
2022-09-21T03:09:36.985Z,7.72
2022-09-21T03:12:04.977Z,7.65
2022-09-21T03:14:31.243Z,7.59
2022-09-21T03:16:57.517Z,7.60
2022-09-21T03:19:23.777Z,7.60
2022-09-21T03:21:50.063Z,7.53
2022-09-21T03:24:16.345Z,7.42
2022-09-21T03:26:42.585Z,7.41
2022-09-21T03:29:10.176Z,7.41
2022-09-21T03:31:36.451Z,7.40
2022-09-21T03:34:02.738Z,7.38
2022-09-21T03:36:28.998Z,7.35
2022-09-21T03:38:55.341Z,7.32
2022-09-21T03:41:21.606Z,7.30
2022-09-21T03:43:47.866Z,7.27
2022-09-21T03:46:15.504Z,7.24
2022-09-21T03:48:41.799Z,7.24
2022-09-21T03:51:08.079Z,7.22
2022-09-21T03:53:34.357Z,7.22
2022-09-21T03:56:00.807Z,7.14
2022-09-21T03:58:27.107Z,7.10
2022-09-21T04:00:53.368Z,7.06
2022-09-21T04:03:20.962Z,7.04
2022-09-21T04:05:47.236Z,7.08
2022-09-21T04:08:13.498Z,7.12
2022-09-21T04:10:39.782Z,7.09
2022-09-21T04:13:06.059Z,7.04
2022-09-21T04:15:32.407Z,7.02
2022-09-21T04:17:58.778Z,7.03
2022-09-21T04:20:26.370Z,7.03
2022-09-21T04:22:52.666Z,7.00
2022-09-21T04:25:19.028Z,6.91
2022-09-21T04:27:45.299Z,6.90
2022-09-21T04:30:12.216Z,6.89
2022-09-21T04:32:38.481Z,6.90
2022-09-21T04:35:05.158Z,6.96
2022-09-21T04:37:32.766Z,7.02
2022-09-21T04:39:59.078Z,6.99
2022-09-21T04:42:25.404Z,6.97
2022-09-21T04:44:51.674Z,6.94
2022-09-21T04:47:17.958Z,6.92
2022-09-21T04:49:44.224Z,6.91
2022-09-21T04:52:10.498Z,6.91
2022-09-21T04:54:38.189Z,6.92
2022-09-21T04:57:04.686Z,6.94
2022-09-21T04:59:30.959Z,6.98
2022-09-21T05:01:57.215Z,6.99
2022-09-21T05:04:23.536Z,6.99
2022-09-21T05:06:49.812Z,6.99
2022-09-21T05:09:16.090Z,6.95
2022-09-21T05:11:43.958Z,6.92
2022-09-21T05:14:10.410Z,6.85
2022-09-21T05:16:36.684Z,6.84
2022-09-21T05:19:02.992Z,6.83
2022-09-21T05:21:29.260Z,6.79
2022-09-21T05:23:55.503Z,6.72
2022-09-21T05:26:21.773Z,6.64
2022-09-21T05:28:49.839Z,6.68
2022-09-21T05:31:26.255Z,6.69
2022-09-21T05:33:56.143Z,6.67
2022-09-21T05:36:30.671Z,6.70
2022-09-21T05:38:57.190Z,6.74
2022-09-21T05:41:23.758Z,6.69
2022-09-21T05:43:51.902Z,6.69
2022-09-21T05:46:20.462Z,6.70
2022-09-21T05:48:51.722Z,6.72
2022-09-21T05:51:24.222Z,6.70
2022-09-21T05:53:57.449Z,6.70
2022-09-21T05:56:30.697Z,6.72
2022-09-21T05:59:01.182Z,6.78
2022-09-21T06:01:36.003Z,6.84
2022-09-21T06:04:03.063Z,6.86
2022-09-21T06:06:29.395Z,6.87
2022-09-21T06:08:55.659Z,6.91
2022-09-21T06:11:21.930Z,6.93
2022-09-21T06:13:48.181Z,7.00
2022-09-21T06:16:15.850Z,7.08
2022-09-21T06:18:42.115Z,7.16
2022-09-21T06:21:08.768Z,7.23
2022-09-21T06:23:35.314Z,7.29
2022-09-21T06:26:01.581Z,7.36
2022-09-21T06:28:27.848Z,7.44
2022-09-21T06:30:55.015Z,7.51
2022-09-21T06:33:22.731Z,7.57
2022-09-21T06:35:52.457Z,7.59
2022-09-21T06:38:18.738Z,7.64
2022-09-21T06:40:45.003Z,7.70
2022-09-21T06:43:11.285Z,7.77
2022-09-21T06:45:37.609Z,7.83
2022-09-21T06:48:03.962Z,7.89
2022-09-21T06:50:31.566Z,7.96
2022-09-21T06:52:59.374Z,8.07
2022-09-21T06:55:25.650Z,8.16
2022-09-21T06:57:51.924Z,8.27
2022-09-21T07:00:18.242Z,8.39
2022-09-21T07:02:45.046Z,8.48
2022-09-21T07:05:11.668Z,8.57
2022-09-21T07:07:39.354Z,8.66
2022-09-21T07:10:07.223Z,8.79
2022-09-21T07:12:34.407Z,8.88
2022-09-21T07:15:00.668Z,8.99
2022-09-21T07:17:30.716Z,9.13
2022-09-21T07:19:56.978Z,9.23
2022-09-21T07:22:23.235Z,9.35
2022-09-21T07:24:50.845Z,9.47
2022-09-21T07:27:17.110Z,9.64
2022-09-21T07:29:43.420Z,9.72
2022-09-21T07:32:09.673Z,9.82
2022-09-21T07:34:36.029Z,9.93
2022-09-21T07:37:02.378Z,10.03
2022-09-21T07:39:28.654Z,10.11
2022-09-21T07:41:56.347Z,10.17
2022-09-21T07:44:22.624Z,10.28
2022-09-21T07:46:48.917Z,10.38
2022-09-21T07:49:15.431Z,10.48
2022-09-21T07:51:41.719Z,10.56
2022-09-21T07:54:09.434Z,10.66
2022-09-21T07:56:36.414Z,10.74
2022-09-21T07:59:04.262Z,10.85
2022-09-21T08:01:31.239Z,10.94
2022-09-21T08:03:57.841Z,11.03
2022-09-21T08:06:24.847Z,11.13
2022-09-21T08:08:55.254Z,11.22
2022-09-21T08:11:24.109Z,11.34
2022-09-21T08:13:52.571Z,11.45
2022-09-21T08:16:20.241Z,11.56
2022-09-21T08:18:46.543Z,11.62
2022-09-21T08:21:13.369Z,11.74
2022-09-21T08:23:39.714Z,11.79
2022-09-21T08:26:07.057Z,11.87
2022-09-21T08:28:33.896Z,11.97
2022-09-21T08:31:00.253Z,12.09
2022-09-21T08:33:29.693Z,12.19
2022-09-21T08:35:57.956Z,12.33
2022-09-21T08:38:24.991Z,12.43
2022-09-21T08:40:51.917Z,12.54
2022-09-21T08:43:22.244Z,12.68
2022-09-21T08:45:48.739Z,12.72
2022-09-21T08:48:18.174Z,12.84
2022-09-21T08:50:47.535Z,12.89
2022-09-21T08:53:15.859Z,12.92
2022-09-21T08:55:42.222Z,12.98
2022-09-21T08:58:15.605Z,13.08
2022-09-21T09:00:42.402Z,13.17
2022-09-21T09:03:16.609Z,13.24
2022-09-21T09:05:45.930Z,13.27
2022-09-21T09:08:21.039Z,13.34
2022-09-21T09:10:55.097Z,13.49
2022-09-21T09:13:41.868Z,13.67
2022-09-21T09:16:14.546Z,13.80
2022-09-21T09:18:43.923Z,13.83
2022-09-21T09:21:12.864Z,13.92
2022-09-21T09:23:43.353Z,14.07
2022-09-21T09:26:13.323Z,14.22
2022-09-21T09:28:42.546Z,14.37
2022-09-21T09:31:12.574Z,14.43
2022-09-21T09:33:45.874Z,14.59
2022-09-21T09:36:13.243Z,14.70
2022-09-21T09:38:43.913Z,14.77
2022-09-21T09:41:25.067Z,14.90
2022-09-21T09:43:58.270Z,15.00
2022-09-21T09:46:30.725Z,15.09
2022-09-21T09:49:07.317Z,15.17
2022-09-21T09:51:33.631Z,15.30
2022-09-21T09:54:01.266Z,15.45
2022-09-21T09:56:27.700Z,15.59
2022-09-21T09:58:56.323Z,15.69
2022-09-21T10:01:36.394Z,15.80
2022-09-21T10:04:05.276Z,15.99
2022-09-21T10:06:32.313Z,16.08
2022-09-21T10:08:58.587Z,15.82
2022-09-21T10:11:35.050Z,15.78
2022-09-21T10:14:07.657Z,16.00
2022-09-21T10:16:40.031Z,16.25
2022-09-21T10:19:06.319Z,16.20
2022-09-21T10:21:34.330Z,16.00
2022-09-21T10:24:02.520Z,15.83
2022-09-21T10:26:34.526Z,15.68
2022-09-21T10:29:01.518Z,15.53
2022-09-21T10:31:28.284Z,15.37
2022-09-21T10:34:05.102Z,15.27
2022-09-21T10:36:32.651Z,15.19
2022-09-21T10:39:25.697Z,15.15
2022-09-21T10:41:54.782Z,15.10
2022-09-21T10:44:22.370Z,15.09
2022-09-21T10:46:49.649Z,15.04
2022-09-21T10:49:19.606Z,15.02
2022-09-21T10:51:47.097Z,14.98
2022-09-21T10:54:18.322Z,14.92
2022-09-21T10:56:50.584Z,14.88
2022-09-21T10:59:22.290Z,14.88
2022-09-21T11:01:49.502Z,14.85
2022-09-21T11:04:19.395Z,14.82
2022-09-21T11:06:46.658Z,14.83
2022-09-21T11:09:16.393Z,14.88
2022-09-21T11:11:46.317Z,14.91
2022-09-21T11:14:16.714Z,15.08
2022-09-21T11:16:48.632Z,15.19
2022-09-21T11:19:20.500Z,15.18
2022-09-21T11:21:51.664Z,15.18
2022-09-21T11:24:22.280Z,15.19
2022-09-21T11:26:53.425Z,15.22
2022-09-21T11:29:22.789Z,15.21
2022-09-21T11:31:58.436Z,15.22
2022-09-21T11:34:35.784Z,15.25
2022-09-21T11:37:07.959Z,15.30
2022-09-21T11:39:39.954Z,15.38
2022-09-21T11:42:14.622Z,15.36
2022-09-21T11:44:46.031Z,15.32
2022-09-21T11:47:18.507Z,15.24
2022-09-21T11:50:13.071Z,15.26
2022-09-21T11:52:48.239Z,15.25
2022-09-21T11:55:44.643Z,15.30
2022-09-21T11:58:15.231Z,15.35
2022-09-21T12:00:44.029Z,15.41
2022-09-21T12:03:26.618Z,15.44
2022-09-21T12:06:02.460Z,15.48
2022-09-21T12:08:40.415Z,15.53
2022-09-21T12:11:11.280Z,15.60
2022-09-21T12:13:40.110Z,15.65
2022-09-21T12:16:20.297Z,15.68
2022-09-21T12:18:54.072Z,15.67
2022-09-21T12:21:22.390Z,15.69
2022-09-21T12:23:51.270Z,15.81
2022-09-21T12:26:19.539Z,15.84
2022-09-21T12:28:47.982Z,15.84
2022-09-21T12:31:18.551Z,15.82
2022-09-21T12:33:48.367Z,15.83
2022-09-21T12:36:18.195Z,15.91
2022-09-21T12:38:49.878Z,16.02
2022-09-21T12:41:18.090Z,16.15
2022-09-21T12:43:46.761Z,16.12
2022-09-21T12:46:15.145Z,16.12
2022-09-21T12:48:41.545Z,16.17
2022-09-21T12:51:12.462Z,16.19
2022-09-21T12:53:43.187Z,16.19
2022-09-21T12:56:12.502Z,16.16
2022-09-21T12:58:45.979Z,16.12
2022-09-21T13:01:18.984Z,16.08
2022-09-21T13:03:49.326Z,16.04
2022-09-21T13:06:29.982Z,15.98
2022-09-21T13:09:01.040Z,15.94
2022-09-21T13:11:27.549Z,15.89
2022-09-21T13:13:57.640Z,15.87
2022-09-21T13:16:25.352Z,15.83
2022-09-21T13:18:55.146Z,15.84
2022-09-21T13:21:24.104Z,15.87
2022-09-21T13:23:55.808Z,15.83
2022-09-21T13:26:31.509Z,15.81
2022-09-21T13:29:02.540Z,15.82
2022-09-21T13:31:40.720Z,15.83
2022-09-21T13:34:20.270Z,15.87
2022-09-21T13:37:06.816Z,15.90
2022-09-21T13:39:33.184Z,15.89
2022-09-21T13:42:20.779Z,15.93
2022-09-21T13:44:47.088Z,15.92
2022-09-21T13:47:13.452Z,15.96
2022-09-21T13:49:42.063Z,15.92
2022-09-21T13:52:20.283Z,15.94
2022-09-21T13:54:48.593Z,15.99
2022-09-21T13:57:18.453Z,16.06
2022-09-21T13:59:45.926Z,16.13
2022-09-21T14:02:24.993Z,16.17
2022-09-21T14:04:51.765Z,16.23
2022-09-21T14:07:18.543Z,16.31
2022-09-21T14:09:53.564Z,16.36
2022-09-21T14:12:22.898Z,16.43
2022-09-21T14:15:04.061Z,16.43
2022-09-21T14:17:34.110Z,16.46
2022-09-21T14:20:00.559Z,16.49
2022-09-21T14:22:40.542Z,16.53
2022-09-21T14:25:27.215Z,16.56
2022-09-21T14:27:58.922Z,16.61
2022-09-21T14:30:26.680Z,16.64
2022-09-21T14:33:01.582Z,16.61
2022-09-21T14:35:33.873Z,16.59
2022-09-21T14:38:02.275Z,16.58
2022-09-21T14:40:30.747Z,16.56
2022-09-21T14:42:59.839Z,16.56
2022-09-21T14:45:41.291Z,16.51
2022-09-21T14:48:09.795Z,16.47
2022-09-21T14:50:39.352Z,16.43
2022-09-21T14:53:16.422Z,16.38
2022-09-21T14:55:51.128Z,16.37
2022-09-21T14:58:25.704Z,16.29
2022-09-21T15:00:52.033Z,16.25
2022-09-21T15:03:36.235Z,16.27
2022-09-21T15:06:08.620Z,16.42
2022-09-21T15:08:45.062Z,16.71
2022-09-21T15:11:15.726Z,16.88
2022-09-21T15:13:49.062Z,16.77
2022-09-21T15:16:26.078Z,16.62
2022-09-21T15:19:00.435Z,16.45
2022-09-21T15:21:27.875Z,16.29
2022-09-21T15:23:54.468Z,16.19
2022-09-21T15:26:22.140Z,16.07
2022-09-21T15:29:08.908Z,15.98
2022-09-21T15:31:37.395Z,15.94
2022-09-21T15:34:04.862Z,15.89
2022-09-21T15:36:36.847Z,15.87
2022-09-21T15:39:03.517Z,15.94
2022-09-21T15:41:50.850Z,16.12
2022-09-21T15:44:22.179Z,16.35
2022-09-21T15:46:50.510Z,16.35
2022-09-21T15:49:17.730Z,16.18
2022-09-21T15:51:44.022Z,16.05
2022-09-21T15:54:25.511Z,15.91
2022-09-21T15:56:52.054Z,15.84
2022-09-21T15:59:20.828Z,15.76
2022-09-21T16:01:48.375Z,15.67
2022-09-21T16:04:16.671Z,15.63
2022-09-21T16:06:45.407Z,15.62
2022-09-21T16:09:27.964Z,15.61
2022-09-21T16:11:54.630Z,15.59
2022-09-21T16:14:22.664Z,15.61
2022-09-21T16:17:05.621Z,15.61
2022-09-21T16:19:39.152Z,15.53
2022-09-21T16:22:05.535Z,15.44
2022-09-21T16:24:31.983Z,15.38
2022-09-21T16:26:59.784Z,15.34
2022-09-21T16:29:36.631Z,15.30
2022-09-21T16:32:17.782Z,15.22
2022-09-21T16:34:44.416Z,15.18
2022-09-21T16:37:21.553Z,15.12
2022-09-21T16:39:47.809Z,15.04
2022-09-21T16:42:15.487Z,14.99
2022-09-21T16:44:43.130Z,14.95
2022-09-21T16:47:11.838Z,14.87
2022-09-21T16:49:38.102Z,14.82
2022-09-21T16:52:04.383Z,14.75
2022-09-21T16:54:30.650Z,14.72
2022-09-21T16:56:58.700Z,14.66
2022-09-21T16:59:25.270Z,14.61
2022-09-21T17:01:56.350Z,14.54
2022-09-21T17:04:24.769Z,14.47
2022-09-21T17:06:51.613Z,14.43
2022-09-21T17:09:20.772Z,14.35
2022-09-21T17:11:47.556Z,14.29
2022-09-21T17:14:14.216Z,14.24
2022-09-21T17:16:40.478Z,14.18
2022-09-21T17:19:09.337Z,14.13
2022-09-21T17:21:35.636Z,14.05
2022-09-21T17:24:01.894Z,13.98
2022-09-21T17:26:28.175Z,13.90
2022-09-21T17:28:54.454Z,13.80
2022-09-21T17:31:21.973Z,13.72
2022-09-21T17:33:48.664Z,13.65
2022-09-21T17:36:16.961Z,13.55
2022-09-21T17:38:43.662Z,13.46
2022-09-21T17:41:14.859Z,13.37
2022-09-21T17:43:44.280Z,13.28
2022-09-21T17:46:13.663Z,13.21
2022-09-21T17:48:40.174Z,13.15
2022-09-21T17:51:06.998Z,13.08
2022-09-21T17:53:34.941Z,12.96
2022-09-21T17:56:04.419Z,12.87
2022-09-21T17:58:40.886Z,12.74
2022-09-21T18:01:11.338Z,12.64
2022-09-21T18:03:37.926Z,12.55
2022-09-21T18:06:04.643Z,12.48
2022-09-21T18:08:32.187Z,12.37
2022-09-21T18:11:05.879Z,12.33
2022-09-21T18:13:38.690Z,12.30
2022-09-21T18:16:12.328Z,12.25
2022-09-21T18:18:42.943Z,12.18
2022-09-21T18:21:13.149Z,12.17
2022-09-21T18:23:42.576Z,12.14
2022-09-21T18:26:10.784Z,12.11
2022-09-21T18:28:39.190Z,12.03
2022-09-21T18:31:13.852Z,11.99
2022-09-21T18:33:45.826Z,11.94
2022-09-21T18:36:18.542Z,11.88
2022-09-21T18:38:48.757Z,11.76
2022-09-21T18:41:20.224Z,11.68
2022-09-21T18:44:00.767Z,11.55
2022-09-21T18:46:28.364Z,11.44
2022-09-21T18:48:58.813Z,11.42
2022-09-21T18:51:29.043Z,11.37
2022-09-21T18:53:56.414Z,11.30
2022-09-21T18:56:25.448Z,11.27
2022-09-21T18:58:52.103Z,11.22
2022-09-21T19:01:19.212Z,11.20
2022-09-21T19:03:45.879Z,11.13
2022-09-21T19:06:17.367Z,11.13
2022-09-21T19:08:47.733Z,11.13
2022-09-21T19:11:18.427Z,11.15
2022-09-21T19:13:51.712Z,11.18
2022-09-21T19:16:23.901Z,11.22
2022-09-21T19:18:55.675Z,11.25
2022-09-21T19:21:29.534Z,11.28
2022-09-21T19:24:06.947Z,11.27
2022-09-21T19:26:35.479Z,11.25
2022-09-21T19:29:25.351Z,11.22
2022-09-21T19:31:51.714Z,11.19
2022-09-21T19:34:18.657Z,11.18
2022-09-21T19:36:45.724Z,11.15
2022-09-21T19:39:12.682Z,11.07
2022-09-21T19:41:47.758Z,10.99
2022-09-21T19:44:22.326Z,10.93
2022-09-21T19:46:56.870Z,10.88
2022-09-21T19:49:25.246Z,10.83
2022-09-21T19:51:52.563Z,10.74
2022-09-21T19:54:19.846Z,10.69
2022-09-21T19:56:52.118Z,10.62
2022-09-21T19:59:21.873Z,10.57
2022-09-21T20:01:50.995Z,10.53
2022-09-21T20:04:19.880Z,10.48
2022-09-21T20:06:52.531Z,10.42
2022-09-21T20:09:21.987Z,10.38
2022-09-21T20:11:51.497Z,10.30
2022-09-21T20:14:25.694Z,10.20
2022-09-21T20:16:52.667Z,10.14
2022-09-21T20:19:25.109Z,10.04
2022-09-21T20:21:55.071Z,10.00
2022-09-21T20:24:23.719Z,9.95
2022-09-21T20:26:50.858Z,9.88
2022-09-21T20:29:17.368Z,9.91
2022-09-21T20:31:44.009Z,9.95
2022-09-21T20:34:10.593Z,9.97
2022-09-21T20:36:38.175Z,9.92
2022-09-21T20:39:04.521Z,9.89
2022-09-21T20:41:30.856Z,9.84
2022-09-21T20:43:57.123Z,9.82
2022-09-21T20:46:23.471Z,9.79
2022-09-21T20:48:49.788Z,9.76
2022-09-21T20:51:16.051Z,9.76
2022-09-21T20:53:43.703Z,9.79
2022-09-21T20:56:09.980Z,9.78
2022-09-21T20:58:36.237Z,9.70
2022-09-21T21:01:02.793Z,9.61
2022-09-21T21:03:29.070Z,9.56
2022-09-21T21:06:06.271Z,9.54
2022-09-21T21:08:32.560Z,9.52
2022-09-21T21:11:00.134Z,9.48
2022-09-21T21:13:28.179Z,9.46
2022-09-21T21:15:54.451Z,9.47
2022-09-21T21:18:20.726Z,9.51
2022-09-21T21:20:46.995Z,9.48
2022-09-21T21:23:13.242Z,9.48
2022-09-21T21:25:39.593Z,9.50
2022-09-21T21:28:07.222Z,9.50
2022-09-21T21:30:33.501Z,9.47
2022-09-21T21:32:59.780Z,9.42
2022-09-21T21:35:26.047Z,9.38
2022-09-21T21:37:52.342Z,9.31
2022-09-21T21:40:18.622Z,9.26
2022-09-21T21:42:44.936Z,9.25
2022-09-21T21:45:12.553Z,9.23
2022-09-21T21:47:40.601Z,9.17
2022-09-21T21:50:07.803Z,9.10
2022-09-21T21:52:34.079Z,9.09
2022-09-21T21:55:00.355Z,9.08
2022-09-21T21:57:26.615Z,9.05
2022-09-21T21:59:52.895Z,9.04
2022-09-21T22:02:20.559Z,9.00
2022-09-21T22:04:46.885Z,8.93
2022-09-21T22:07:13.213Z,8.90
2022-09-21T22:09:39.485Z,8.82
2022-09-21T22:12:05.829Z,8.81
2022-09-21T22:14:32.170Z,8.77
2022-09-21T22:16:58.446Z,8.77
2022-09-21T22:19:26.155Z,8.79
2022-09-21T22:21:54.419Z,8.78
2022-09-21T22:24:21.034Z,8.76
2022-09-21T22:26:47.335Z,8.74
2022-09-21T22:29:14.150Z,8.71
2022-09-21T22:31:41.490Z,8.67
2022-09-21T22:34:07.798Z,8.63
2022-09-21T22:36:36.342Z,8.57
2022-09-21T22:39:03.466Z,8.55
2022-09-21T22:41:30.770Z,8.55
2022-09-21T22:43:58.265Z,8.59
2022-09-21T22:46:25.245Z,8.60
2022-09-21T22:48:51.517Z,8.58
2022-09-21T22:51:18.640Z,8.57
2022-09-21T22:53:46.906Z,8.57
2022-09-21T22:56:14.128Z,8.59
2022-09-21T22:58:42.545Z,8.54
2022-09-21T23:01:09.732Z,8.49
2022-09-21T23:03:36.466Z,8.50
2022-09-21T23:06:03.292Z,8.44
2022-09-21T23:08:29.547Z,8.42
2022-09-21T23:11:04.504Z,8.39
2022-09-21T23:13:30.782Z,8.38
2022-09-21T23:16:00.304Z,8.38
2022-09-21T23:18:26.793Z,8.34
2022-09-21T23:20:56.515Z,8.28
2022-09-21T23:23:22.793Z,8.27
2022-09-21T23:25:49.069Z,8.19
2022-09-21T23:28:16.676Z,8.14
2022-09-21T23:30:42.938Z,8.10
2022-09-21T23:33:09.212Z,8.01
2022-09-21T23:35:35.472Z,7.99
2022-09-21T23:38:01.746Z,7.97
2022-09-21T23:40:28.103Z,7.94
2022-09-21T23:42:54.419Z,7.95
2022-09-21T23:45:22.039Z,7.99
2022-09-21T23:47:48.311Z,7.98
2022-09-21T23:50:14.595Z,7.91
2022-09-21T23:52:40.880Z,7.86
2022-09-21T23:55:07.534Z,7.80
2022-09-21T23:57:33.813Z,7.76
